sensor_id;sensor_type;location;lat;lon;timestamp;pressure;altitude;pressure_sealevel;temperature;humidity
60871;BME280;46714;50.118;14.462;2023-09-19T00:00:00;98327.50;;;16.96;100.00
60871;BME280;46714;50.118;14.462;2023-09-19T00:02:26;98323.41;;;16.93;100.00
60871;BME280;46714;50.118;14.462;2023-09-19T00:04:52;98327.53;;;16.91;100.00
60871;BME280;46714;50.118;14.462;2023-09-19T00:07:18;98319.81;;;16.88;100.00
60871;BME280;46714;50.118;14.462;2023-09-19T00:09:44;98325.88;;;16.85;100.00
60871;BME280;46714;50.118;14.462;2023-09-19T00:12:09;98332.50;;;16.84;100.00
60871;BME280;46714;50.118;14.462;2023-09-19T00:14:35;98329.19;;;16.82;100.00
60871;BME280;46714;50.118;14.462;2023-09-19T00:17:03;98339.88;;;16.78;100.00
60871;BME280;46714;50.118;14.462;2023-09-19T00:19:36;98334.94;;;16.75;100.00
60871;BME280;46714;50.118;14.462;2023-09-19T00:22:02;98340.69;;;16.73;100.00
60871;BME280;46714;50.118;14.462;2023-09-19T00:24:29;98336.84;;;16.69;100.00
60871;BME280;46714;50.118;14.462;2023-09-19T00:26:54;98333.53;;;16.67;100.00
60871;BME280;46714;50.118;14.462;2023-09-19T00:29:20;98334.91;;;16.65;100.00
60871;BME280;46714;50.118;14.462;2023-09-19T00:31:46;98346.22;;;16.63;100.00
60871;BME280;46714;50.118;14.462;2023-09-19T00:34:11;98344.28;;;16.59;100.00
60871;BME280;46714;50.118;14.462;2023-09-19T00:36:37;98343.72;;;16.57;100.00
60871;BME280;46714;50.118;14.462;2023-09-19T00:39:08;98354.97;;;16.55;100.00
60871;BME280;46714;50.118;14.462;2023-09-19T00:41:33;98355.25;;;16.53;100.00
60871;BME280;46714;50.118;14.462;2023-09-19T00:44:01;98363.78;;;16.52;100.00
60871;BME280;46714;50.118;14.462;2023-09-19T00:46:27;98365.16;;;16.49;100.00
60871;BME280;46714;50.118;14.462;2023-09-19T00:48:53;98353.88;;;16.46;100.00
60871;BME280;46714;50.118;14.462;2023-09-19T00:51:19;98351.69;;;16.43;100.00
60871;BME280;46714;50.118;14.462;2023-09-19T00:53:47;98361.31;;;16.40;100.00
60871;BME280;46714;50.118;14.462;2023-09-19T00:56:12;98361.31;;;16.40;100.00
60871;BME280;46714;50.118;14.462;2023-09-19T00:58:40;98352.22;;;16.40;100.00
60871;BME280;46714;50.118;14.462;2023-09-19T01:01:05;98350.56;;;16.39;100.00
60871;BME280;46714;50.118;14.462;2023-09-19T01:03:36;98343.41;;;16.38;100.00
60871;BME280;46714;50.118;14.462;2023-09-19T01:06:02;98339.84;;;16.37;100.00
60871;BME280;46714;50.118;14.462;2023-09-19T01:08:27;98337.41;;;16.36;100.00
60871;BME280;46714;50.118;14.462;2023-09-19T01:11:06;98345.34;;;16.37;100.00
60871;BME280;46714;50.118;14.462;2023-09-19T01:17:09;98337.41;;;16.36;100.00
60871;BME280;46714;50.118;14.462;2023-09-19T01:22:09;98340.13;;;16.30;100.00
60871;BME280;46714;50.118;14.462;2023-09-19T01:29:46;98343.97;;;16.29;100.00
60871;BME280;46714;50.118;14.462;2023-09-19T01:32:15;98349.47;;;16.29;100.00
60871;BME280;46714;50.118;14.462;2023-09-19T01:34:54;98339.84;;;16.27;100.00
60871;BME280;46714;50.118;14.462;2023-09-19T01:37:29;98337.38;;;16.25;100.00
60871;BME280;46714;50.118;14.462;2023-09-19T01:40:03;98334.88;;;16.24;100.00
60871;BME280;46714;50.118;14.462;2023-09-19T01:51:05;98340.38;;;16.19;100.00
60871;BME280;46714;50.118;14.462;2023-09-19T01:56:07;98336.81;;;16.18;100.00
60871;BME280;46714;50.118;14.462;2023-09-19T01:58:38;98339.56;;;16.18;100.00
60871;BME280;46714;50.118;14.462;2023-09-19T02:01:08;98330.22;;;16.19;100.00
60871;BME280;46714;50.118;14.462;2023-09-19T02:03:40;98334.34;;;16.22;100.00
60871;BME280;46714;50.118;14.462;2023-09-19T02:06:07;98332.97;;;16.24;100.00
60871;BME280;46714;50.118;14.462;2023-09-19T02:08:36;98331.06;;;16.25;100.00
60871;BME280;46714;50.118;14.462;2023-09-19T02:11:02;98334.34;;;16.27;100.00
60871;BME280;46714;50.118;14.462;2023-09-19T02:13:28;98334.63;;;16.30;100.00
60871;BME280;46714;50.118;14.462;2023-09-19T02:15:53;98329.69;;;16.32;100.00
60871;BME280;46714;50.118;14.462;2023-09-19T02:18:19;98329.41;;;16.34;100.00
60871;BME280;46714;50.118;14.462;2023-09-19T02:20:45;98325.31;;;16.37;100.00
60871;BME280;46714;50.118;14.462;2023-09-19T02:23:11;98326.13;;;16.37;100.00
60871;BME280;46714;50.118;14.462;2023-09-19T02:25:37;98328.88;;;16.37;100.00
60871;BME280;46714;50.118;14.462;2023-09-19T02:28:05;98324.19;;;16.38;100.00
60871;BME280;46714;50.118;14.462;2023-09-19T02:30:31;98320.34;;;16.39;100.00
60871;BME280;46714;50.118;14.462;2023-09-19T02:32:57;98333.84;;;16.40;100.00
60871;BME280;46714;50.118;14.462;2023-09-19T02:35:23;98330.78;;;16.42;100.00
60871;BME280;46714;50.118;14.462;2023-09-19T02:37:51;98337.94;;;16.43;100.00
60871;BME280;46714;50.118;14.462;2023-09-19T02:40:16;98331.09;;;16.45;100.00
60871;BME280;46714;50.118;14.462;2023-09-19T02:42:48;98323.66;;;16.46;100.00
60871;BME280;46714;50.118;14.462;2023-09-19T02:45:17;98330.25;;;16.50;100.00
60871;BME280;46714;50.118;14.462;2023-09-19T02:47:46;98332.44;;;16.53;100.00
60871;BME280;46714;50.118;14.462;2023-09-19T02:50:13;98331.91;;;16.56;100.00
60871;BME280;46714;50.118;14.462;2023-09-19T02:52:41;98328.06;;;16.57;100.00
60871;BME280;46714;50.118;14.462;2023-09-19T02:55:08;98334.09;;;16.59;99.70
60871;BME280;46714;50.118;14.462;2023-09-19T02:57:34;98328.06;;;16.62;99.56
60871;BME280;46714;50.118;14.462;2023-09-19T03:00:06;98336.03;;;16.64;99.25
60871;BME280;46714;50.118;14.462;2023-09-19T03:02:35;98329.16;;;16.66;99.20
60871;BME280;46714;50.118;14.462;2023-09-19T03:05:00;98322.53;;;16.67;98.87
60871;BME280;46714;50.118;14.462;2023-09-19T03:07:27;98328.91;;;16.68;99.04
60871;BME280;46714;50.118;14.462;2023-09-19T03:09:53;98318.72;;;16.68;98.75
60871;BME280;46714;50.118;14.462;2023-09-19T03:12:20;98328.03;;;16.67;98.10
60871;BME280;46714;50.118;14.462;2023-09-19T03:14:45;98328.03;;;16.67;98.35
60871;BME280;46714;50.118;14.462;2023-09-19T03:17:10;98322.53;;;16.67;97.87
60871;BME280;46714;50.118;14.462;2023-09-19T03:19:36;98332.47;;;16.68;97.89
60871;BME280;46714;50.118;14.462;2023-09-19T03:22:04;98328.03;;;16.67;97.71
60871;BME280;46714;50.118;14.462;2023-09-19T03:24:29;98330.78;;;16.67;97.65
60871;BME280;46714;50.118;14.462;2023-09-19T03:26:56;98339.03;;;16.67;97.65
60871;BME280;46714;50.118;14.462;2023-09-19T03:29:22;98340.16;;;16.66;97.84
60871;BME280;46714;50.118;14.462;2023-09-19T03:31:48;98338.50;;;16.65;97.87
60871;BME280;46714;50.118;14.462;2023-09-19T03:34:13;98338.50;;;16.65;97.78
60871;BME280;46714;50.118;14.462;2023-09-19T03:36:38;98334.91;;;16.65;97.78
60871;BME280;46714;50.118;14.462;2023-09-19T03:39:05;98335.22;;;16.63;98.21
60871;BME280;46714;50.118;14.462;2023-09-19T03:41:31;98345.09;;;16.64;97.77
60871;BME280;46714;50.118;14.462;2023-09-19T03:43:58;98339.84;;;16.63;98.19
60871;BME280;46714;50.118;14.462;2023-09-19T03:46:23;98342.59;;;16.63;98.51
60871;BME280;46714;50.118;14.462;2023-09-19T03:48:49;98339.59;;;16.59;98.59
60871;BME280;46714;50.118;14.462;2023-09-19T03:51:15;98329.69;;;16.58;98.76
60871;BME280;46714;50.118;14.462;2023-09-19T03:53:41;98338.75;;;16.53;98.77
60871;BME280;46714;50.118;14.462;2023-09-19T03:56:06;98333.00;;;16.50;99.35
60871;BME280;46714;50.118;14.462;2023-09-19T03:58:33;98336.28;;;16.47;98.98
60871;BME280;46714;50.118;14.462;2023-09-19T04:01:03;98349.19;;;16.46;99.43
60871;BME280;46714;50.118;14.462;2023-09-19T04:03:28;98350.31;;;16.45;99.26
60871;BME280;46714;50.118;14.462;2023-09-19T04:06:00;98351.13;;;16.46;99.41
60871;BME280;46714;50.118;14.462;2023-09-19T04:08:26;98347.56;;;16.45;99.46
60871;BME280;46714;50.118;14.462;2023-09-19T04:10:51;98351.38;;;16.44;99.73
60871;BME280;46714;50.118;14.462;2023-09-19T04:13:18;98350.56;;;16.44;99.73
60871;BME280;46714;50.118;14.462;2023-09-19T04:15:43;98346.75;;;16.45;99.94
60871;BME280;46714;50.118;14.462;2023-09-19T04:18:11;98355.25;;;16.43;100.00
60871;BME280;46714;50.118;14.462;2023-09-19T04:20:36;98351.94;;;16.41;100.00
60871;BME280;46714;50.118;14.462;2023-09-19T04:23:02;98354.97;;;16.40;100.00
60871;BME280;46714;50.118;14.462;2023-09-19T04:25:29;98358.81;;;16.39;100.00
60871;BME280;46714;50.118;14.462;2023-09-19T04:27:54;98365.38;;;16.38;100.00
60871;BME280;46714;50.118;14.462;2023-09-19T04:30:20;98372.25;;;16.35;100.00
60871;BME280;46714;50.118;14.462;2023-09-19T04:32:46;98380.78;;;16.33;100.00
60871;BME280;46714;50.118;14.462;2023-09-19T04:35:15;98380.22;;;16.31;100.00
60871;BME280;46714;50.118;14.462;2023-09-19T04:37:41;98376.94;;;16.29;100.00
60871;BME280;46714;50.118;14.462;2023-09-19T04:40:07;98390.91;;;16.28;100.00
60871;BME280;46714;50.118;14.462;2023-09-19T04:42:42;98388.47;;;16.26;100.00
60871;BME280;46714;50.118;14.462;2023-09-19T04:45:08;98383.78;;;16.27;100.00
60871;BME280;46714;50.118;14.462;2023-09-19T04:47:37;98396.72;;;16.26;100.00
60871;BME280;46714;50.118;14.462;2023-09-19T04:50:09;98399.44;;;16.26;100.00
60871;BME280;46714;50.118;14.462;2023-09-19T04:52:39;98401.34;;;16.26;100.00
60871;BME280;46714;50.118;14.462;2023-09-19T04:55:07;98403.28;;;16.25;100.00
60871;BME280;46714;50.118;14.462;2023-09-19T04:57:34;98407.13;;;16.24;100.00
60871;BME280;46714;50.118;14.462;2023-09-19T04:59:59;98409.59;;;16.26;100.00
60871;BME280;46714;50.118;14.462;2023-09-19T05:02:25;98420.88;;;16.24;100.00
60871;BME280;46714;50.118;14.462;2023-09-19T05:04:50;98416.19;;;16.25;100.00
60871;BME280;46714;50.118;14.462;2023-09-19T05:07:15;98417.00;;;16.25;100.00
60871;BME280;46714;50.118;14.462;2023-09-19T05:09:42;98423.06;;;16.27;100.00
60871;BME280;46714;50.118;14.462;2023-09-19T05:12:07;98412.88;;;16.28;100.00
60871;BME280;46714;50.118;14.462;2023-09-19T05:14:35;98413.44;;;16.30;100.00
60871;BME280;46714;50.118;14.462;2023-09-19T05:17:01;98420.31;;;16.32;100.00
60871;BME280;46714;50.118;14.462;2023-09-19T05:19:28;98422.81;;;16.34;100.00
60871;BME280;46714;50.118;14.462;2023-09-19T05:21:53;98427.50;;;16.39;100.00
60871;BME280;46714;50.118;14.462;2023-09-19T05:24:20;98429.97;;;16.40;100.00
60871;BME280;46714;50.118;14.462;2023-09-19T05:26:48;98434.34;;;16.41;100.00
60871;BME280;46714;50.118;14.462;2023-09-19T05:29:13;98435.72;;;16.44;100.00
60871;BME280;46714;50.118;14.462;2023-09-19T05:31:39;98429.16;;;16.45;100.00
60871;BME280;46714;50.118;14.462;2023-09-19T05:34:06;98430.78;;;16.46;100.00
60871;BME280;46714;50.118;14.462;2023-09-19T05:36:31;98436.03;;;16.47;100.00
60871;BME280;46714;50.118;14.462;2023-09-19T05:38:58;98439.03;;;16.51;100.00
60871;BME280;46714;50.118;14.462;2023-09-19T05:41:24;98445.66;;;16.55;100.00
60871;BME280;46714;50.118;14.462;2023-09-19T05:43:49;98448.13;;;16.57;100.00
60871;BME280;46714;50.118;14.462;2023-09-19T05:46:15;98441.28;;;16.59;100.00
60871;BME280;46714;50.118;14.462;2023-09-19T05:48:41;98441.28;;;16.59;100.00
60871;BME280;46714;50.118;14.462;2023-09-19T05:51:08;98440.16;;;16.60;100.00
60871;BME280;46714;50.118;14.462;2023-09-19T05:53:34;98443.75;;;16.61;100.00
60871;BME280;46714;50.118;14.462;2023-09-19T05:56:00;98445.13;;;16.63;100.00
60871;BME280;46714;50.118;14.462;2023-09-19T05:58:26;98436.88;;;16.63;100.00
60871;BME280;46714;50.118;14.462;2023-09-19T06:00:51;98443.47;;;16.67;99.73
60871;BME280;46714;50.118;14.462;2023-09-19T06:03:17;98447.06;;;16.68;99.78
60871;BME280;46714;50.118;14.462;2023-09-19T06:05:44;98448.44;;;16.70;99.29
60871;BME280;46714;50.118;14.462;2023-09-19T06:08:11;98452.56;;;16.73;99.55
60871;BME280;46714;50.118;14.462;2023-09-19T06:10:36;98452.28;;;16.74;99.62
60871;BME280;46714;50.118;14.462;2023-09-19T06:13:02;98467.69;;;16.75;99.15
60871;BME280;46714;50.118;14.462;2023-09-19T06:15:31;98480.31;;;16.76;99.29
60871;BME280;46714;50.118;14.462;2023-09-19T06:17:58;98491.63;;;16.80;99.29
60871;BME280;46714;50.118;14.462;2023-09-19T06:20:25;98494.94;;;16.82;99.01
60871;BME280;46714;50.118;14.462;2023-09-19T06:22:52;98499.63;;;16.87;98.75
60871;BME280;46714;50.118;14.462;2023-09-19T06:25:18;98499.88;;;16.90;97.58
60871;BME280;46714;50.118;14.462;2023-09-19T06:27:47;98505.41;;;16.95;97.86
60871;BME280;46714;50.118;14.462;2023-09-19T06:30:14;98506.53;;;17.00;97.82
60871;BME280;46714;50.118;14.462;2023-09-19T06:32:40;98510.66;;;17.02;97.82
60871;BME280;46714;50.118;14.462;2023-09-19T06:35:09;98515.59;;;17.05;97.70
60871;BME280;46714;50.118;14.462;2023-09-19T06:37:36;98518.63;;;17.09;97.48
60871;BME280;46714;50.118;14.462;2023-09-19T06:40:09;98524.66;;;17.11;96.89
60871;BME280;46714;50.118;14.462;2023-09-19T06:42:46;98529.63;;;17.14;96.58
60871;BME280;46714;50.118;14.462;2023-09-19T06:45:13;98533.75;;;17.16;96.54
60871;BME280;46714;50.118;14.462;2023-09-19T06:47:43;98532.38;;;17.19;96.16
60871;BME280;46714;50.118;14.462;2023-09-19T06:50:10;98539.00;;;17.23;96.32
60871;BME280;46714;50.118;14.462;2023-09-19T06:52:39;98543.38;;;17.24;95.96
60871;BME280;46714;50.118;14.462;2023-09-19T06:55:05;98540.91;;;17.28;96.28
60871;BME280;46714;50.118;14.462;2023-09-19T06:57:31;98534.03;;;17.30;95.06
60871;BME280;46714;50.118;14.462;2023-09-19T06:59:57;98545.03;;;17.30;94.74
60871;BME280;46714;50.118;14.462;2023-09-19T07:02:22;98537.34;;;17.32;95.45
60871;BME280;46714;50.118;14.462;2023-09-19T07:04:48;98543.41;;;17.34;95.29
60871;BME280;46714;50.118;14.462;2023-09-19T07:07:14;98546.41;;;17.38;94.61
60871;BME280;46714;50.118;14.462;2023-09-19T07:09:40;98548.91;;;17.45;94.82
60871;BME280;46714;50.118;14.462;2023-09-19T07:12:07;98560.44;;;17.52;94.74
60871;BME280;46714;50.118;14.462;2023-09-19T07:14:33;98555.22;;;17.55;93.81
60871;BME280;46714;50.118;14.462;2023-09-19T07:16:58;98554.66;;;17.58;93.98
60871;BME280;46714;50.118;14.462;2023-09-19T07:19:25;98557.72;;;17.62;93.79
60871;BME280;46714;50.118;14.462;2023-09-19T07:21:53;98556.88;;;17.67;93.83
60871;BME280;46714;50.118;14.462;2023-09-19T07:24:18;98560.19;;;17.74;93.59
60871;BME280;46714;50.118;14.462;2023-09-19T07:26:45;98570.63;;;17.77;92.92
60871;BME280;46714;50.118;14.462;2023-09-19T07:29:10;98566.50;;;17.79;92.25
60871;BME280;46714;50.118;14.462;2023-09-19T07:31:36;98566.50;;;17.79;92.91
60871;BME280;46714;50.118;14.462;2023-09-19T07:34:01;98572.00;;;17.79;92.21
60871;BME280;46714;50.118;14.462;2023-09-19T07:36:29;98575.31;;;17.82;92.13
60871;BME280;46714;50.118;14.462;2023-09-19T07:38:54;98573.44;;;17.82;92.40
60871;BME280;46714;50.118;14.462;2023-09-19T07:41:20;98569.00;;;17.86;92.38
60871;BME280;46714;50.118;14.462;2023-09-19T07:43:46;98575.59;;;17.90;92.55
60871;BME280;46714;50.118;14.462;2023-09-19T07:46:11;98571.75;;;17.91;91.54
60871;BME280;46714;50.118;14.462;2023-09-19T07:48:37;98575.34;;;17.92;91.55
60871;BME280;46714;50.118;14.462;2023-09-19T07:51:04;98578.09;;;17.92;91.65
60871;BME280;46714;50.118;14.462;2023-09-19T07:53:32;98582.22;;;17.94;91.98
60871;BME280;46714;50.118;14.462;2023-09-19T07:56:02;98585.50;;;17.96;91.69
60871;BME280;46714;50.118;14.462;2023-09-19T07:58:31;98592.13;;;18.00;90.88
60871;BME280;46714;50.118;14.462;2023-09-19T08:01:01;98587.69;;;18.05;91.21
60871;BME280;46714;50.118;14.462;2023-09-19T08:03:28;98589.91;;;18.08;90.29
60871;BME280;46714;50.118;14.462;2023-09-19T08:05:53;98589.06;;;18.12;90.39
60871;BME280;46714;50.118;14.462;2023-09-19T08:08:20;98595.13;;;18.19;90.06
60871;BME280;46714;50.118;14.462;2023-09-19T08:10:52;98601.72;;;18.24;87.79
60871;BME280;46714;50.118;14.462;2023-09-19T08:13:18;98591.78;;;18.28;88.98
60871;BME280;46714;50.118;14.462;2023-09-19T08:15:43;98602.53;;;18.29;87.88
60871;BME280;46714;50.118;14.462;2023-09-19T08:18:09;98608.00;;;18.34;88.95
60871;BME280;46714;50.118;14.462;2023-09-19T08:20:37;98599.47;;;18.41;88.35
60871;BME280;46714;50.118;14.462;2023-09-19T08:23:03;98596.41;;;18.48;87.57
60871;BME280;46714;50.118;14.462;2023-09-19T08:25:28;98601.91;;;18.53;87.07
60871;BME280;46714;50.118;14.462;2023-09-19T08:27:54;98595.81;;;18.61;88.33
60871;BME280;46714;50.118;14.462;2023-09-19T08:30:23;98611.25;;;18.67;86.25
60871;BME280;46714;50.118;14.462;2023-09-19T08:32:49;98595.53;;;18.68;85.67
60871;BME280;46714;50.118;14.462;2023-09-19T08:35:15;98608.69;;;18.76;85.75
60871;BME280;46714;50.118;14.462;2023-09-19T08:37:42;98603.50;;;18.79;84.79
60871;BME280;46714;50.118;14.462;2023-09-19T08:40:08;98608.16;;;18.84;85.41
60871;BME280;46714;50.118;14.462;2023-09-19T08:42:50;98605.94;;;18.86;85.77
60871;BME280;46714;50.118;14.462;2023-09-19T08:45:18;98613.09;;;18.87;85.37
60871;BME280;46714;50.118;14.462;2023-09-19T08:47:50;98613.69;;;18.84;84.10
60871;BME280;46714;50.118;14.462;2023-09-19T08:50:43;98619.22;;;18.79;83.79
60871;BME280;46714;50.118;14.462;2023-09-19T08:53:16;98620.31;;;18.78;83.69
60871;BME280;46714;50.118;14.462;2023-09-19T08:55:59;98621.97;;;18.74;83.88
60871;BME280;46714;50.118;14.462;2023-09-19T08:58:27;98626.09;;;18.76;84.28
60871;BME280;46714;50.118;14.462;2023-09-19T09:01:00;98631.34;;;18.78;83.98
60871;BME280;46714;50.118;14.462;2023-09-19T09:03:27;98644.28;;;18.82;84.27
60871;BME280;46714;50.118;14.462;2023-09-19T09:05:59;98647.56;;;18.90;83.30
60871;BME280;46714;50.118;14.462;2023-09-19T09:08:24;98643.66;;;19.01;82.70
60871;BME280;46714;50.118;14.462;2023-09-19T09:10:51;98642.22;;;19.14;82.64
60871;BME280;46714;50.118;14.462;2023-09-19T09:13:17;98646.63;;;19.20;81.75
60871;BME280;46714;50.118;14.462;2023-09-19T09:15:43;98635.56;;;19.20;81.85
60871;BME280;46714;50.118;14.462;2023-09-19T09:18:10;98645.72;;;19.30;82.09
60871;BME280;46714;50.118;14.462;2023-09-19T09:20:35;98650.63;;;19.43;81.30
60871;BME280;46714;50.118;14.462;2023-09-19T09:23:01;98638.72;;;19.48;80.70
60871;BME280;46714;50.118;14.462;2023-09-19T09:28:34;98638.97;;;19.51;80.91
60871;BME280;46714;50.118;14.462;2023-09-19T09:31:04;98644.50;;;19.46;80.23
60871;BME280;46714;50.118;14.462;2023-09-19T09:33:37;98645.97;;;19.38;79.87
60871;BME280;46714;50.118;14.462;2023-09-19T09:36:04;98652.06;;;19.30;80.84
60871;BME280;46714;50.118;14.462;2023-09-19T09:41:11;98649.66;;;19.18;81.30
60871;BME280;46714;50.118;14.462;2023-09-19T09:43:41;98643.59;;;19.16;81.97
60871;BME280;46714;50.118;14.462;2023-09-19T09:46:16;98639.72;;;19.17;81.73
60871;BME280;46714;50.118;14.462;2023-09-19T09:48:45;98634.72;;;19.19;80.23
60871;BME280;46714;50.118;14.462;2023-09-19T09:51:29;98630.56;;;19.27;81.85
60871;BME280;46714;50.118;14.462;2023-09-19T09:54:15;98621.38;;;19.37;81.50
60871;BME280;46714;50.118;14.462;2023-09-19T09:56:57;98612.53;;;19.40;80.57
60871;BME280;46714;50.118;14.462;2023-09-19T10:02:11;98621.78;;;19.59;78.63
60871;BME280;46714;50.118;14.462;2023-09-19T10:04:38;98618.72;;;19.66;77.81
60871;BME280;46714;50.118;14.462;2023-09-19T10:07:26;98619.19;;;19.78;78.48
60871;BME280;46714;50.118;14.462;2023-09-19T10:10:01;98613.59;;;19.88;75.52
60871;BME280;46714;50.118;14.462;2023-09-19T10:12:46;98625.88;;;20.01;74.88
60871;BME280;46714;50.118;14.462;2023-09-19T10:15:13;98618.63;;;20.11;73.42
60871;BME280;46714;50.118;14.462;2023-09-19T10:17:42;98632.09;;;20.17;74.73
60871;BME280;46714;50.118;14.462;2023-09-19T10:20:15;98630.66;;;20.25;75.01
60871;BME280;46714;50.118;14.462;2023-09-19T10:23:09;98629.47;;;20.31;74.40
60871;BME280;46714;50.118;14.462;2023-09-19T10:25:39;98636.06;;;20.35;73.77
60871;BME280;46714;50.118;14.462;2023-09-19T10:28:06;98634.94;;;20.36;73.49
60871;BME280;46714;50.118;14.462;2023-09-19T10:30:36;98634.38;;;20.39;72.19
60871;BME280;46714;50.118;14.462;2023-09-19T10:33:08;98630.81;;;20.39;71.13
60871;BME280;46714;50.118;14.462;2023-09-19T10:35:34;98639.31;;;20.42;71.53
60871;BME280;46714;50.118;14.462;2023-09-19T10:38:05;98635.44;;;20.43;71.00
60871;BME280;46714;50.118;14.462;2023-09-19T10:40:34;98628.72;;;20.49;70.49
60871;BME280;46714;50.118;14.462;2023-09-19T10:43:02;98633.16;;;20.50;69.27
60871;BME280;46714;50.118;14.462;2023-09-19T10:45:32;98634.50;;;20.53;70.56
60871;BME280;46714;50.118;14.462;2023-09-19T10:48:00;98629.22;;;20.57;68.79
60871;BME280;46714;50.118;14.462;2023-09-19T10:50:29;98630.63;;;20.59;67.42
60871;BME280;46714;50.118;14.462;2023-09-19T10:53:00;98633.88;;;20.61;67.67
60871;BME280;46714;50.118;14.462;2023-09-19T10:55:29;98619.47;;;20.64;65.39
60871;BME280;46714;50.118;14.462;2023-09-19T10:57:57;98618.28;;;20.70;67.34
60871;BME280;46714;50.118;14.462;2023-09-19T11:00:58;98622.72;;;20.71;64.69
60871;BME280;46714;50.118;14.462;2023-09-19T11:03:43;98624.00;;;20.79;64.92
60871;BME280;46714;50.118;14.462;2023-09-19T11:09:03;98621.78;;;21.00;64.64
60871;BME280;46714;50.118;14.462;2023-09-19T11:11:47;98624.19;;;21.07;62.46
60871;BME280;46714;50.118;14.462;2023-09-19T11:25:42;98615.63;;;21.65;56.82
60871;BME280;46714;50.118;14.462;2023-09-19T11:30:50;98636.09;;;21.69;55.10
60871;BME280;46714;50.118;14.462;2023-09-19T11:43:49;98623.28;;;22.06;55.85
60871;BME280;46714;50.118;14.462;2023-09-19T11:46:24;98608.50;;;22.11;54.83
60871;BME280;46714;50.118;14.462;2023-09-19T11:48:50;98616.09;;;22.19;52.23
60871;BME280;46714;50.118;14.462;2023-09-19T11:51:20;98617.53;;;22.16;49.44
60871;BME280;46714;50.118;14.462;2023-09-19T11:53:57;98621.75;;;22.14;49.26
60871;BME280;46714;50.118;14.462;2023-09-19T11:56:26;98621.84;;;22.09;49.19
60871;BME280;46714;50.118;14.462;2023-09-19T11:58:56;98621.53;;;22.10;50.20
60871;BME280;46714;50.118;14.462;2023-09-19T12:01:26;98619.47;;;22.02;50.58
60871;BME280;46714;50.118;14.462;2023-09-19T12:03:55;98617.22;;;22.04;51.39
60871;BME280;46714;50.118;14.462;2023-09-19T12:06:23;98622.13;;;22.07;50.68
60871;BME280;46714;50.118;14.462;2023-09-19T12:08:49;98617.63;;;22.11;49.82
60871;BME280;46714;50.118;14.462;2023-09-19T12:11:16;98620.31;;;22.16;49.08
60871;BME280;46714;50.118;14.462;2023-09-19T12:13:45;98625.28;;;22.20;48.01
60871;BME280;46714;50.118;14.462;2023-09-19T12:16:14;98620.53;;;22.20;48.79
60871;BME280;46714;50.118;14.462;2023-09-19T12:18:46;98630.13;;;22.28;47.99
60871;BME280;46714;50.118;14.462;2023-09-19T12:24:04;98614.13;;;22.38;47.98
60871;BME280;46714;50.118;14.462;2023-09-19T12:26:41;98619.69;;;22.38;47.67
60871;BME280;46714;50.118;14.462;2023-09-19T12:29:13;98619.97;;;22.37;46.72
60871;BME280;46714;50.118;14.462;2023-09-19T12:31:52;98611.66;;;22.37;46.96
60871;BME280;46714;50.118;14.462;2023-09-19T12:34:31;98606.63;;;22.39;46.42
60871;BME280;46714;50.118;14.462;2023-09-19T12:37:13;98609.81;;;22.46;47.55
60871;BME280;46714;50.118;14.462;2023-09-19T12:39:47;98611.25;;;22.57;47.05
60871;BME280;46714;50.118;14.462;2023-09-19T12:42:16;98616.59;;;22.54;47.24
60871;BME280;46714;50.118;14.462;2023-09-19T12:44:46;98618.03;;;22.51;47.09
60871;BME280;46714;50.118;14.462;2023-09-19T12:47:14;98609.00;;;22.46;46.69
60871;BME280;46714;50.118;14.462;2023-09-19T12:52:34;98596.25;;;22.45;46.93
60871;BME280;46714;50.118;14.462;2023-09-19T12:55:03;98600.28;;;22.52;46.01
60871;BME280;46714;50.118;14.462;2023-09-19T12:57:31;98606.75;;;22.62;48.55
60871;BME280;46714;50.118;14.462;2023-09-19T13:00:00;98613.84;;;22.68;46.66
60871;BME280;46714;50.118;14.462;2023-09-19T13:02:26;98614.97;;;22.67;46.41
60871;BME280;46714;50.118;14.462;2023-09-19T13:04:53;98615.66;;;22.58;46.50
60871;BME280;46714;50.118;14.462;2023-09-19T13:10:12;98610.97;;;22.59;48.11
60871;BME280;46714;50.118;14.462;2023-09-19T13:12:40;98598.94;;;22.50;47.57
60871;BME280;46714;50.118;14.462;2023-09-19T13:15:09;98603.75;;;22.44;47.06
60871;BME280;46714;50.118;14.462;2023-09-19T13:17:47;98593.78;;;22.43;45.65
60871;BME280;46714;50.118;14.462;2023-09-19T13:20:26;98596.03;;;22.41;46.69
60871;BME280;46714;50.118;14.462;2023-09-19T13:22:52;98597.16;;;22.40;46.69
60871;BME280;46714;50.118;14.462;2023-09-19T13:25:20;98592.97;;;22.43;45.90
60871;BME280;46714;50.118;14.462;2023-09-19T13:27:50;98589.88;;;22.44;47.35
60871;BME280;46714;50.118;14.462;2023-09-19T13:30:18;98597.09;;;22.45;46.84
60871;BME280;46714;50.118;14.462;2023-09-19T13:32:45;98591.44;;;22.50;47.53
60871;BME280;46714;50.118;14.462;2023-09-19T13:35:12;98593.59;;;22.53;46.23
60871;BME280;46714;50.118;14.462;2023-09-19T13:37:39;98589.38;;;22.56;45.19
60871;BME280;46714;50.118;14.462;2023-09-19T13:40:08;98600.88;;;22.49;45.34
60871;BME280;46714;50.118;14.462;2023-09-19T13:42:34;98604.88;;;22.43;44.68
60871;BME280;46714;50.118;14.462;2023-09-19T13:45:01;98590.22;;;22.43;44.63
60871;BME280;46714;50.118;14.462;2023-09-19T13:47:30;98598.00;;;22.41;44.81
60871;BME280;46714;50.118;14.462;2023-09-19T13:49:57;98604.56;;;22.45;44.80
60871;BME280;46714;50.118;14.462;2023-09-19T13:52:23;98591.72;;;22.49;44.73
60871;BME280;46714;50.118;14.462;2023-09-19T13:54:51;98597.69;;;22.56;45.40
60871;BME280;46714;50.118;14.462;2023-09-19T13:57:18;98594.63;;;22.57;44.20
60871;BME280;46714;50.118;14.462;2023-09-19T13:59:43;98597.91;;;22.59;43.97